sensor_id;sensor_type;location;lat;lon;timestamp;P1;durP1;ratioP1;P2;durP2;ratioP2
17372;SDS011;8803;48.116;11.590;2023-05-14T00:01:15;12.00;;;10.63;;
17372;SDS011;8803;48.116;11.590;2023-05-14T00:03:19;12.77;;;11.47;;
17372;SDS011;8803;48.116;11.590;2023-05-14T00:05:23;12.37;;;11.00;;
17372;SDS011;8803;48.116;11.590;2023-05-14T00:07:27;11.50;;;10.33;;
17372;SDS011;8803;48.116;11.590;2023-05-14T00:09:31;10.60;;;9.50;;
17372;SDS011;8803;48.116;11.590;2023-05-14T00:11:44;13.17;;;10.80;;
17372;SDS011;8803;48.116;11.590;2023-05-14T00:13:48;12.00;;;10.80;;
17372;SDS011;8803;48.116;11.590;2023-05-14T00:15:52;12.57;;;10.80;;
17372;SDS011;8803;48.116;11.590;2023-05-14T00:17:56;10.70;;;9.67;;
17372;SDS011;8803;48.116;11.590;2023-05-14T00:20:10;11.70;;;10.47;;
17372;SDS011;8803;48.116;11.590;2023-05-14T00:22:15;11.87;;;10.50;;
17372;SDS011;8803;48.116;11.590;2023-05-14T00:24:28;11.83;;;10.27;;
17372;SDS011;8803;48.116;11.590;2023-05-14T00:26:32;11.47;;;10.27;;
17372;SDS011;8803;48.116;11.590;2023-05-14T00:28:35;12.47;;;10.00;;
17372;SDS011;8803;48.116;11.590;2023-05-14T00:30:39;10.67;;;9.53;;
17372;SDS011;8803;48.116;11.590;2023-05-14T00:32:52;10.83;;;9.73;;
17372;SDS011;8803;48.116;11.590;2023-05-14T00:34:56;11.23;;;10.00;;
17372;SDS011;8803;48.116;11.590;2023-05-14T00:36:59;11.77;;;10.57;;
17372;SDS011;8803;48.116;11.590;2023-05-14T00:39:03;11.43;;;9.63;;
17372;SDS011;8803;48.116;11.590;2023-05-14T00:41:18;10.97;;;9.87;;
17372;SDS011;8803;48.116;11.590;2023-05-14T00:43:23;12.40;;;11.17;;
17372;SDS011;8803;48.116;11.590;2023-05-14T00:45:27;11.57;;;10.37;;
17372;SDS011;8803;48.116;11.590;2023-05-14T00:47:31;16.17;;;14.13;;
17372;SDS011;8803;48.116;11.590;2023-05-14T00:49:36;16.70;;;15.00;;
17372;SDS011;8803;48.116;11.590;2023-05-14T00:51:49;13.87;;;12.17;;
17372;SDS011;8803;48.116;11.590;2023-05-14T00:53:53;12.77;;;11.47;;
17372;SDS011;8803;48.116;11.590;2023-05-14T00:55:57;15.20;;;13.60;;
17372;SDS011;8803;48.116;11.590;2023-05-14T00:58:01;12.67;;;11.33;;
17372;SDS011;8803;48.116;11.590;2023-05-14T01:00:07;12.47;;;11.17;;
17372;SDS011;8803;48.116;11.590;2023-05-14T01:02:21;12.37;;;11.07;;
17372;SDS011;8803;48.116;11.590;2023-05-14T01:04:24;12.20;;;10.90;;
17372;SDS011;8803;48.116;11.590;2023-05-14T01:06:30;11.87;;;10.67;;
17372;SDS011;8803;48.116;11.590;2023-05-14T01:08:49;11.47;;;10.17;;
17372;SDS011;8803;48.116;11.590;2023-05-14T01:11:05;11.67;;;10.53;;
17372;SDS011;8803;48.116;11.590;2023-05-14T01:13:12;11.67;;;10.47;;
17372;SDS011;8803;48.116;11.590;2023-05-14T01:15:19;12.20;;;11.00;;
17372;SDS011;8803;48.116;11.590;2023-05-14T01:17:25;12.63;;;11.33;;
17372;SDS011;8803;48.116;11.590;2023-05-14T01:19:35;12.43;;;11.13;;
17372;SDS011;8803;48.116;11.590;2023-05-14T01:21:48;12.60;;;11.20;;
17372;SDS011;8803;48.116;11.590;2023-05-14T01:23:51;13.20;;;11.80;;
17372;SDS011;8803;48.116;11.590;2023-05-14T01:25:55;12.57;;;11.30;;
17372;SDS011;8803;48.116;11.590;2023-05-14T01:28:00;12.90;;;11.03;;
17372;SDS011;8803;48.116;11.590;2023-05-14T01:30:16;13.47;;;12.07;;
17372;SDS011;8803;48.116;11.590;2023-05-14T01:34:34;12.23;;;10.93;;
17372;SDS011;8803;48.116;11.590;2023-05-14T01:36:39;12.33;;;11.10;;
17372;SDS011;8803;48.116;11.590;2023-05-14T01:38:52;11.43;;;10.33;;
17372;SDS011;8803;48.116;11.590;2023-05-14T01:40:57;12.07;;;10.97;;
17372;SDS011;8803;48.116;11.590;2023-05-14T01:43:10;13.77;;;11.57;;
17372;SDS011;8803;48.116;11.590;2023-05-14T01:45:15;12.50;;;11.20;;
17372;SDS011;8803;48.116;11.590;2023-05-14T01:47:27;13.57;;;12.17;;
17372;SDS011;8803;48.116;11.590;2023-05-14T01:49:31;12.83;;;11.53;;
17372;SDS011;8803;48.116;11.590;2023-05-14T01:51:47;12.60;;;11.30;;
17372;SDS011;8803;48.116;11.590;2023-05-14T01:53:51;13.40;;;12.00;;
17372;SDS011;8803;48.116;11.590;2023-05-14T01:56:04;12.47;;;11.17;;
17372;SDS011;8803;48.116;11.590;2023-05-14T01:58:08;14.07;;;11.33;;
17372;SDS011;8803;48.116;11.590;2023-05-14T02:00:12;12.37;;;11.17;;
17372;SDS011;8803;48.116;11.590;2023-05-14T02:02:26;11.30;;;10.10;;
17372;SDS011;8803;48.116;11.590;2023-05-14T02:04:30;13.87;;;12.43;;
17372;SDS011;8803;48.116;11.590;2023-05-14T02:06:34;11.70;;;10.33;;
17372;SDS011;8803;48.116;11.590;2023-05-14T02:08:37;13.20;;;11.10;;
17372;SDS011;8803;48.116;11.590;2023-05-14T02:10:41;13.33;;;11.93;;
17372;SDS011;8803;48.116;11.590;2023-05-14T02:12:54;12.40;;;11.10;;
17372;SDS011;8803;48.116;11.590;2023-05-14T02:14:58;12.90;;;11.20;;
17372;SDS011;8803;48.116;11.590;2023-05-14T02:17:11;11.93;;;10.70;;
17372;SDS011;8803;48.116;11.590;2023-05-14T02:19:16;12.27;;;10.97;;
17372;SDS011;8803;48.116;11.590;2023-05-14T02:21:29;12.00;;;10.67;;
17372;SDS011;8803;48.116;11.590;2023-05-14T02:23:33;13.43;;;11.53;;
17372;SDS011;8803;48.116;11.590;2023-05-14T02:25:37;13.40;;;11.27;;
17372;SDS011;8803;48.116;11.590;2023-05-14T02:27:40;14.57;;;12.73;;
17372;SDS011;8803;48.116;11.590;2023-05-14T02:29:59;13.83;;;11.10;;
17372;SDS011;8803;48.116;11.590;2023-05-14T02:34:16;13.63;;;11.57;;
17372;SDS011;8803;48.116;11.590;2023-05-14T02:36:20;16.83;;;13.60;;
17372;SDS011;8803;48.116;11.590;2023-05-14T02:38:24;17.07;;;14.37;;
17372;SDS011;8803;48.116;11.590;2023-05-14T02:40:39;18.33;;;15.03;;
17372;SDS011;8803;48.116;11.590;2023-05-14T02:42:43;17.53;;;13.13;;
17372;SDS011;8803;48.116;11.590;2023-05-14T02:44:55;16.77;;;13.23;;
17372;SDS011;8803;48.116;11.590;2023-05-14T02:46:59;18.30;;;14.07;;
17372;SDS011;8803;48.116;11.590;2023-05-14T02:49:03;15.60;;;12.90;;
17372;SDS011;8803;48.116;11.590;2023-05-14T02:51:18;16.13;;;14.07;;
17372;SDS011;8803;48.116;11.590;2023-05-14T02:53:22;16.53;;;13.63;;
17372;SDS011;8803;48.116;11.590;2023-05-14T02:55:25;15.00;;;13.40;;
17372;SDS011;8803;48.116;11.590;2023-05-14T02:57:29;14.67;;;12.53;;
17372;SDS011;8803;48.116;11.590;2023-05-14T02:59:33;15.00;;;13.37;;
17372;SDS011;8803;48.116;11.590;2023-05-14T03:01:46;22.27;;;16.40;;
17372;SDS011;8803;48.116;11.590;2023-05-14T03:03:49;16.87;;;15.07;;
17372;SDS011;8803;48.116;11.590;2023-05-14T03:06:02;24.80;;;16.60;;
17372;SDS011;8803;48.116;11.590;2023-05-14T03:08:06;21.40;;;16.03;;
17372;SDS011;8803;48.116;11.590;2023-05-14T03:10:10;18.50;;;15.97;;
17372;SDS011;8803;48.116;11.590;2023-05-14T03:12:23;21.20;;;17.03;;
17372;SDS011;8803;48.116;11.590;2023-05-14T03:14:27;17.63;;;14.70;;
17372;SDS011;8803;48.116;11.590;2023-05-14T03:16:30;21.87;;;16.00;;
17372;SDS011;8803;48.116;11.590;2023-05-14T03:18:34;17.67;;;14.87;;
17372;SDS011;8803;48.116;11.590;2023-05-14T03:20:38;19.07;;;15.77;;
17372;SDS011;8803;48.116;11.590;2023-05-14T03:22:51;17.80;;;14.93;;
17372;SDS011;8803;48.116;11.590;2023-05-14T03:24:56;23.27;;;16.10;;
17372;SDS011;8803;48.116;11.590;2023-05-14T03:26:59;18.90;;;15.10;;
17372;SDS011;8803;48.116;11.590;2023-05-14T03:29:03;16.97;;;14.30;;
17372;SDS011;8803;48.116;11.590;2023-05-14T03:31:16;15.07;;;13.47;;
17372;SDS011;8803;48.116;11.590;2023-05-14T03:33:20;17.53;;;13.67;;
17372;SDS011;8803;48.116;11.590;2023-05-14T03:35:24;15.40;;;13.80;;
17372;SDS011;8803;48.116;11.590;2023-05-14T03:37:28;12.93;;;11.50;;
17372;SDS011;8803;48.116;11.590;2023-05-14T03:39:32;13.80;;;11.97;;
17372;SDS011;8803;48.116;11.590;2023-05-14T03:41:44;14.83;;;12.70;;
17372;SDS011;8803;48.116;11.590;2023-05-14T03:43:48;17.20;;;13.10;;
17372;SDS011;8803;48.116;11.590;2023-05-14T03:45:52;16.43;;;13.53;;
17372;SDS011;8803;48.116;11.590;2023-05-14T03:47:56;16.03;;;13.37;;
17372;SDS011;8803;48.116;11.590;2023-05-14T03:50:00;16.63;;;12.63;;
17372;SDS011;8803;48.116;11.590;2023-05-14T03:52:15;13.43;;;11.67;;
17372;SDS011;8803;48.116;11.590;2023-05-14T03:54:19;15.10;;;13.17;;
17372;SDS011;8803;48.116;11.590;2023-05-14T03:56:23;15.63;;;14.03;;
17372;SDS011;8803;48.116;11.590;2023-05-14T03:58:27;14.07;;;12.20;;
17372;SDS011;8803;48.116;11.590;2023-05-14T04:00:31;16.03;;;13.03;;
17372;SDS011;8803;48.116;11.590;2023-05-14T04:02:43;14.13;;;12.33;;
17372;SDS011;8803;48.116;11.590;2023-05-14T04:04:47;14.17;;;12.73;;
17372;SDS011;8803;48.116;11.590;2023-05-14T04:06:51;14.13;;;12.63;;
17372;SDS011;8803;48.116;11.590;2023-05-14T04:08:55;13.70;;;12.00;;
17372;SDS011;8803;48.116;11.590;2023-05-14T04:11:08;14.43;;;12.63;;
17372;SDS011;8803;48.116;11.590;2023-05-14T04:13:11;14.47;;;12.97;;
17372;SDS011;8803;48.116;11.590;2023-05-14T04:15:15;14.53;;;12.87;;
17372;SDS011;8803;48.116;11.590;2023-05-14T04:17:19;15.33;;;13.30;;
17372;SDS011;8803;48.116;11.590;2023-05-14T04:19:23;13.70;;;11.80;;
17372;SDS011;8803;48.116;11.590;2023-05-14T04:21:37;14.23;;;11.97;;
17372;SDS011;8803;48.116;11.590;2023-05-14T04:23:41;15.87;;;13.33;;
17372;SDS011;8803;48.116;11.590;2023-05-14T04:25:45;15.00;;;12.37;;
17372;SDS011;8803;48.116;11.590;2023-05-14T04:27:49;13.17;;;11.70;;
17372;SDS011;8803;48.116;11.590;2023-05-14T04:29:52;13.43;;;11.90;;
17372;SDS011;8803;48.116;11.590;2023-05-14T04:32:06;18.97;;;15.53;;
17372;SDS011;8803;48.116;11.590;2023-05-14T04:34:10;15.67;;;13.93;;
17372;SDS011;8803;48.116;11.590;2023-05-14T04:36:14;16.07;;;14.33;;
17372;SDS011;8803;48.116;11.590;2023-05-14T04:38:18;17.07;;;13.53;;
17372;SDS011;8803;48.116;11.590;2023-05-14T04:40:23;19.47;;;15.07;;
17372;SDS011;8803;48.116;11.590;2023-05-14T04:42:35;16.50;;;13.17;;
17372;SDS011;8803;48.116;11.590;2023-05-14T04:44:39;16.73;;;13.30;;
17372;SDS011;8803;48.116;11.590;2023-05-14T04:46:43;17.40;;;14.13;;
17372;SDS011;8803;48.116;11.590;2023-05-14T04:48:47;17.57;;;14.60;;
17372;SDS011;8803;48.116;11.590;2023-05-14T04:50:51;14.73;;;12.80;;
17372;SDS011;8803;48.116;11.590;2023-05-14T04:53:04;16.80;;;13.23;;
17372;SDS011;8803;48.116;11.590;2023-05-14T04:55:09;16.80;;;14.10;;
17372;SDS011;8803;48.116;11.590;2023-05-14T04:57:13;17.47;;;13.67;;
17372;SDS011;8803;48.116;11.590;2023-05-14T04:59:17;17.97;;;14.80;;
17372;SDS011;8803;48.116;11.590;2023-05-14T05:01:21;18.97;;;14.90;;
17372;SDS011;8803;48.116;11.590;2023-05-14T05:03:34;19.37;;;15.50;;
17372;SDS011;8803;48.116;11.590;2023-05-14T05:05:37;17.57;;;14.37;;
17372;SDS011;8803;48.116;11.590;2023-05-14T05:07:41;19.07;;;14.87;;
17372;SDS011;8803;48.116;11.590;2023-05-14T05:09:45;18.87;;;13.53;;
17372;SDS011;8803;48.116;11.590;2023-05-14T05:12:00;18.27;;;14.30;;
17372;SDS011;8803;48.116;11.590;2023-05-14T05:14:03;18.30;;;14.70;;
17372;SDS011;8803;48.116;11.590;2023-05-14T05:16:08;19.07;;;14.63;;
17372;SDS011;8803;48.116;11.590;2023-05-14T05:18:11;17.53;;;14.40;;
17372;SDS011;8803;48.116;11.590;2023-05-14T05:20:16;20.80;;;14.50;;
17372;SDS011;8803;48.116;11.590;2023-05-14T05:22:28;18.53;;;15.20;;
17372;SDS011;8803;48.116;11.590;2023-05-14T05:24:32;20.03;;;15.57;;
17372;SDS011;8803;48.116;11.590;2023-05-14T05:26:36;18.93;;;15.87;;
17372;SDS011;8803;48.116;11.590;2023-05-14T05:28:40;17.10;;;14.63;;
17372;SDS011;8803;48.116;11.590;2023-05-14T05:30:44;18.43;;;15.43;;
17372;SDS011;8803;48.116;11.590;2023-05-14T05:32:58;17.90;;;14.47;;
17372;SDS011;8803;48.116;11.590;2023-05-14T05:35:02;16.50;;;13.87;;
17372;SDS011;8803;48.116;11.590;2023-05-14T05:37:07;16.70;;;14.53;;
17372;SDS011;8803;48.116;11.590;2023-05-14T05:39:12;16.93;;;14.27;;
17372;SDS011;8803;48.116;11.590;2023-05-14T05:41:25;18.43;;;15.00;;
17372;SDS011;8803;48.116;11.590;2023-05-14T05:43:30;17.63;;;15.37;;
17372;SDS011;8803;48.116;11.590;2023-05-14T05:45:46;18.50;;;15.30;;
17372;SDS011;8803;48.116;11.590;2023-05-14T05:47:50;17.43;;;15.03;;
17372;SDS011;8803;48.116;11.590;2023-05-14T05:49:53;18.30;;;14.53;;
17372;SDS011;8803;48.116;11.590;2023-05-14T05:52:08;16.57;;;14.77;;
17372;SDS011;8803;48.116;11.590;2023-05-14T05:54:11;20.03;;;15.00;;
17372;SDS011;8803;48.116;11.590;2023-05-14T05:58:26;20.30;;;15.37;;
17372;SDS011;8803;48.116;11.590;2023-05-14T06:00:30;18.60;;;15.13;;
17372;SDS011;8803;48.116;11.590;2023-05-14T06:02:43;20.07;;;16.07;;
17372;SDS011;8803;48.116;11.590;2023-05-14T06:04:47;19.93;;;15.90;;
17372;SDS011;8803;48.116;11.590;2023-05-14T06:06:51;18.97;;;15.20;;
17372;SDS011;8803;48.116;11.590;2023-05-14T06:08:54;20.87;;;16.03;;
17372;SDS011;8803;48.116;11.590;2023-05-14T06:10:58;16.20;;;14.33;;
17372;SDS011;8803;48.116;11.590;2023-05-14T06:13:12;20.57;;;15.13;;
17372;SDS011;8803;48.116;11.590;2023-05-14T06:15:16;21.20;;;15.70;;
17372;SDS011;8803;48.116;11.590;2023-05-14T06:17:20;18.20;;;15.00;;
17372;SDS011;8803;48.116;11.590;2023-05-14T06:19:24;17.80;;;15.10;;
17372;SDS011;8803;48.116;11.590;2023-05-14T06:21:37;22.10;;;16.10;;
17372;SDS011;8803;48.116;11.590;2023-05-14T06:23:41;17.80;;;15.67;;
17372;SDS011;8803;48.116;11.590;2023-05-14T06:25:45;18.47;;;14.90;;
17372;SDS011;8803;48.116;11.590;2023-05-14T06:27:50;17.50;;;14.87;;
17372;SDS011;8803;48.116;11.590;2023-05-14T06:29:54;16.80;;;14.20;;
17372;SDS011;8803;48.116;11.590;2023-05-14T06:32:07;14.83;;;13.03;;
17372;SDS011;8803;48.116;11.590;2023-05-14T06:34:13;15.63;;;13.90;;
17372;SDS011;8803;48.116;11.590;2023-05-14T06:36:16;16.50;;;14.30;;
17372;SDS011;8803;48.116;11.590;2023-05-14T06:38:20;18.57;;;16.17;;
17372;SDS011;8803;48.116;11.590;2023-05-14T06:40:24;19.57;;;16.67;;
17372;SDS011;8803;48.116;11.590;2023-05-14T06:42:28;21.77;;;17.40;;
17372;SDS011;8803;48.116;11.590;2023-05-14T06:44:40;18.93;;;14.77;;
17372;SDS011;8803;48.116;11.590;2023-05-14T06:46:44;16.67;;;13.57;;
17372;SDS011;8803;48.116;11.590;2023-05-14T06:48:48;16.50;;;14.33;;
17372;SDS011;8803;48.116;11.590;2023-05-14T06:50:52;16.77;;;14.67;;
17372;SDS011;8803;48.116;11.590;2023-05-14T06:53:04;18.50;;;16.13;;
17372;SDS011;8803;48.116;11.590;2023-05-14T06:55:08;17.73;;;15.47;;
17372;SDS011;8803;48.116;11.590;2023-05-14T06:57:12;18.13;;;15.33;;
17372;SDS011;8803;48.116;11.590;2023-05-14T06:59:16;17.70;;;14.27;;
17372;SDS011;8803;48.116;11.590;2023-05-14T07:01:29;17.00;;;14.07;;
17372;SDS011;8803;48.116;11.590;2023-05-14T07:03:33;16.47;;;14.33;;
17372;SDS011;8803;48.116;11.590;2023-05-14T07:05:37;16.23;;;14.53;;
17372;SDS011;8803;48.116;11.590;2023-05-14T07:07:41;18.07;;;14.73;;
17372;SDS011;8803;48.116;11.590;2023-05-14T07:09:45;21.20;;;17.53;;
17372;SDS011;8803;48.116;11.590;2023-05-14T07:11:57;18.83;;;14.87;;
17372;SDS011;8803;48.116;11.590;2023-05-14T07:14:01;20.17;;;15.80;;
17372;SDS011;8803;48.116;11.590;2023-05-14T07:16:06;17.37;;;14.73;;
17372;SDS011;8803;48.116;11.590;2023-05-14T07:18:10;18.40;;;14.63;;
17372;SDS011;8803;48.116;11.590;2023-05-14T07:20:14;16.13;;;13.93;;
17372;SDS011;8803;48.116;11.590;2023-05-14T07:22:27;16.17;;;13.63;;
17372;SDS011;8803;48.116;11.590;2023-05-14T07:24:31;15.97;;;13.40;;
17372;SDS011;8803;48.116;11.590;2023-05-14T07:26:43;15.10;;;13.30;;
17372;SDS011;8803;48.116;11.590;2023-05-14T07:28:47;16.20;;;13.67;;
17372;SDS011;8803;48.116;11.590;2023-05-14T07:31:00;18.50;;;15.13;;
17372;SDS011;8803;48.116;11.590;2023-05-14T07:33:07;18.37;;;15.07;;
17372;SDS011;8803;48.116;11.590;2023-05-14T07:35:19;19.17;;;14.53;;
17372;SDS011;8803;48.116;11.590;2023-05-14T07:37:23;16.00;;;14.03;;
17372;SDS011;8803;48.116;11.590;2023-05-14T07:39:37;14.37;;;12.83;;
17372;SDS011;8803;48.116;11.590;2023-05-14T07:41:41;18.43;;;15.83;;
17372;SDS011;8803;48.116;11.590;2023-05-14T07:43:54;18.20;;;15.83;;
17372;SDS011;8803;48.116;11.590;2023-05-14T07:45:58;15.57;;;13.70;;
17372;SDS011;8803;48.116;11.590;2023-05-14T07:48:01;17.00;;;14.70;;
17372;SDS011;8803;48.116;11.590;2023-05-14T07:50:07;17.27;;;14.87;;
17372;SDS011;8803;48.116;11.590;2023-05-14T07:52:20;20.67;;;16.00;;
17372;SDS011;8803;48.116;11.590;2023-05-14T07:54:23;16.43;;;14.23;;
17372;SDS011;8803;48.116;11.590;2023-05-14T07:56:27;14.37;;;12.87;;
17372;SDS011;8803;48.116;11.590;2023-05-14T07:58:31;14.60;;;12.47;;
17372;SDS011;8803;48.116;11.590;2023-05-14T08:00:36;15.50;;;13.20;;
17372;SDS011;8803;48.116;11.590;2023-05-14T08:02:48;14.37;;;11.87;;
17372;SDS011;8803;48.116;11.590;2023-05-14T08:04:52;11.47;;;10.00;;
17372;SDS011;8803;48.116;11.590;2023-05-14T08:06:57;11.57;;;10.27;;
17372;SDS011;8803;48.116;11.590;2023-05-14T08:09:01;12.23;;;10.93;;
17372;SDS011;8803;48.116;11.590;2023-05-14T08:11:14;12.93;;;11.60;;
17372;SDS011;8803;48.116;11.590;2023-05-14T08:13:18;14.07;;;11.80;;
17372;SDS011;8803;48.116;11.590;2023-05-14T08:15:22;14.67;;;12.20;;
17372;SDS011;8803;48.116;11.590;2023-05-14T08:17:26;16.43;;;13.67;;
17372;SDS011;8803;48.116;11.590;2023-05-14T08:21:41;15.93;;;13.17;;
17372;SDS011;8803;48.116;11.590;2023-05-14T08:23:45;15.03;;;12.63;;
17372;SDS011;8803;48.116;11.590;2023-05-14T08:25:49;12.53;;;11.10;;
17372;SDS011;8803;48.116;11.590;2023-05-14T08:27:53;13.83;;;12.33;;
17372;SDS011;8803;48.116;11.590;2023-05-14T08:29:56;16.00;;;12.57;;
17372;SDS011;8803;48.116;11.590;2023-05-14T08:32:09;15.87;;;11.97;;
17372;SDS011;8803;48.116;11.590;2023-05-14T08:34:13;13.43;;;11.97;;
17372;SDS011;8803;48.116;11.590;2023-05-14T08:36:16;12.23;;;10.63;;
17372;SDS011;8803;48.116;11.590;2023-05-14T08:38:20;12.13;;;10.80;;
17372;SDS011;8803;48.116;11.590;2023-05-14T08:40:24;11.03;;;9.83;;
17372;SDS011;8803;48.116;11.590;2023-05-14T08:42:38;9.90;;;8.90;;
17372;SDS011;8803;48.116;11.590;2023-05-14T08:44:44;10.57;;;8.80;;
17372;SDS011;8803;48.116;11.590;2023-05-14T08:46:57;14.83;;;11.10;;
17372;SDS011;8803;48.116;11.590;2023-05-14T08:49:03;11.70;;;10.23;;
17372;SDS011;8803;48.116;11.590;2023-05-14T08:51:18;14.07;;;11.10;;
17372;SDS011;8803;48.116;11.590;2023-05-14T08:53:22;14.93;;;11.57;;
17372;SDS011;8803;48.116;11.590;2023-05-14T08:55:26;13.40;;;11.43;;
17372;SDS011;8803;48.116;11.590;2023-05-14T08:57:32;12.70;;;11.00;;
17372;SDS011;8803;48.116;11.590;2023-05-14T08:59:36;13.77;;;11.27;;
17372;SDS011;8803;48.116;11.590;2023-05-14T09:01:51;11.50;;;10.30;;
17372;SDS011;8803;48.116;11.590;2023-05-14T09:03:55;11.93;;;10.63;;
17372;SDS011;8803;48.116;11.590;2023-05-14T09:06:01;12.40;;;10.77;;
17372;SDS011;8803;48.116;11.590;2023-05-14T09:08:16;14.67;;;12.10;;
17372;SDS011;8803;48.116;11.590;2023-05-14T09:10:21;13.70;;;10.93;;
17372;SDS011;8803;48.116;11.590;2023-05-14T09:12:33;12.43;;;11.03;;
17372;SDS011;8803;48.116;11.590;2023-05-14T09:14:38;13.70;;;12.07;;
17372;SDS011;8803;48.116;11.590;2023-05-14T09:16:43;16.00;;;13.20;;
17372;SDS011;8803;48.116;11.590;2023-05-14T09:18:48;13.30;;;11.23;;
17372;SDS011;8803;48.116;11.590;2023-05-14T09:20:53;15.00;;;11.43;;
17372;SDS011;8803;48.116;11.590;2023-05-14T09:23:07;16.93;;;13.60;;
17372;SDS011;8803;48.116;11.590;2023-05-14T09:25:11;16.83;;;13.17;;
17372;SDS011;8803;48.116;11.590;2023-05-14T09:27:28;12.83;;;11.27;;
17372;SDS011;8803;48.116;11.590;2023-05-14T09:31:46;11.33;;;9.87;;
17372;SDS011;8803;48.116;11.590;2023-05-14T09:33:52;12.23;;;10.30;;
17372;SDS011;8803;48.116;11.590;2023-05-14T09:36:07;11.40;;;9.53;;
17372;SDS011;8803;48.116;11.590;2023-05-14T09:38:11;11.20;;;9.93;;
17372;SDS011;8803;48.116;11.590;2023-05-14T09:42:27;10.87;;;9.70;;
17372;SDS011;8803;48.116;11.590;2023-05-14T09:44:31;12.03;;;10.73;;
17372;SDS011;8803;48.116;11.590;2023-05-14T09:46:38;10.60;;;9.50;;
17372;SDS011;8803;48.116;11.590;2023-05-14T09:48:41;11.77;;;10.57;;
17372;SDS011;8803;48.116;11.590;2023-05-14T09:50:46;11.07;;;9.87;;
17372;SDS011;8803;48.116;11.590;2023-05-14T09:52:59;10.80;;;9.70;;
17372;SDS011;8803;48.116;11.590;2023-05-14T09:55:03;10.17;;;9.03;;
17372;SDS011;8803;48.116;11.590;2023-05-14T09:57:08;11.70;;;10.50;;
17372;SDS011;8803;48.116;11.590;2023-05-14T09:59:12;11.03;;;9.77;;
17372;SDS011;8803;48.116;11.590;2023-05-14T10:01:16;9.70;;;8.17;;
17372;SDS011;8803;48.116;11.590;2023-05-14T10:03:21;10.33;;;9.30;;
17372;SDS011;8803;48.116;11.590;2023-05-14T10:05:36;10.47;;;8.97;;
17372;SDS011;8803;48.116;11.590;2023-05-14T10:07:41;10.87;;;9.80;;
17372;SDS011;8803;48.116;11.590;2023-05-14T10:09:49;9.93;;;8.73;;
17372;SDS011;8803;48.116;11.590;2023-05-14T10:12:03;9.90;;;8.93;;
17372;SDS011;8803;48.116;11.590;2023-05-14T10:14:16;9.77;;;8.80;;
17372;SDS011;8803;48.116;11.590;2023-05-14T10:16:25;29.67;;;14.43;;
17372;SDS011;8803;48.116;11.590;2023-05-14T10:18:40;25.10;;;14.40;;
17372;SDS011;8803;48.116;11.590;2023-05-14T10:20:47;12.70;;;10.00;;
17372;SDS011;8803;48.116;11.590;2023-05-14T10:23:02;13.87;;;10.20;;
17372;SDS011;8803;48.116;11.590;2023-05-14T10:25:08;12.90;;;9.63;;
17372;SDS011;8803;48.116;11.590;2023-05-14T10:27:12;14.87;;;9.30;;
17372;SDS011;8803;48.116;11.590;2023-05-14T10:29:31;9.33;;;8.43;;
17372;SDS011;8803;48.116;11.590;2023-05-14T10:31:46;13.70;;;9.57;;
17372;SDS011;8803;48.116;11.590;2023-05-14T10:34:01;9.80;;;8.80;;
17372;SDS011;8803;48.116;11.590;2023-05-14T10:36:05;9.07;;;8.17;;
17372;SDS011;8803;48.116;11.590;2023-05-14T10:38:21;8.53;;;7.73;;
17372;SDS011;8803;48.116;11.590;2023-05-14T10:42:40;9.63;;;8.63;;
17372;SDS011;8803;48.116;11.590;2023-05-14T10:44:49;9.60;;;8.30;;
17372;SDS011;8803;48.116;11.590;2023-05-14T10:46:56;9.83;;;8.87;;
17372;SDS011;8803;48.116;11.590;2023-05-14T10:49:00;8.30;;;7.50;;
17372;SDS011;8803;48.116;11.590;2023-05-14T10:51:04;11.27;;;8.50;;
17372;SDS011;8803;48.116;11.590;2023-05-14T10:55:23;8.83;;;7.93;;
17372;SDS011;8803;48.116;11.590;2023-05-14T10:57:28;9.33;;;8.43;;
17372;SDS011;8803;48.116;11.590;2023-05-14T10:59:33;10.87;;;8.57;;
17372;SDS011;8803;48.116;11.590;2023-05-14T11:01:46;10.17;;;8.90;;
17372;SDS011;8803;48.116;11.590;2023-05-14T11:03:50;10.87;;;8.50;;
17372;SDS011;8803;48.116;11.590;2023-05-14T11:05:56;11.00;;;8.30;;
17372;SDS011;8803;48.116;11.590;2023-05-14T11:08:03;8.43;;;7.20;;
17372;SDS011;8803;48.116;11.590;2023-05-14T11:10:10;9.50;;;8.50;;
17372;SDS011;8803;48.116;11.590;2023-05-14T11:12:23;8.80;;;7.17;;
17372;SDS011;8803;48.116;11.590;2023-05-14T11:14:28;10.10;;;8.27;;
17372;SDS011;8803;48.116;11.590;2023-05-14T11:16:32;7.63;;;6.83;;
17372;SDS011;8803;48.116;11.590;2023-05-14T11:18:44;8.97;;;7.87;;
17372;SDS011;8803;48.116;11.590;2023-05-14T11:20:48;7.87;;;7.07;;
17372;SDS011;8803;48.116;11.590;2023-05-14T11:22:52;9.13;;;7.43;;
17372;SDS011;8803;48.116;11.590;2023-05-14T11:25:07;10.43;;;8.37;;
17372;SDS011;8803;48.116;11.590;2023-05-14T11:27:14;8.77;;;7.87;;
17372;SDS011;8803;48.116;11.590;2023-05-14T11:29:19;8.07;;;7.00;;
17372;SDS011;8803;48.116;11.590;2023-05-14T11:33:34;9.67;;;7.30;;
17372;SDS011;8803;48.116;11.590;2023-05-14T11:35:38;11.97;;;9.53;;
17372;SDS011;8803;48.116;11.590;2023-05-14T11:37:49;10.37;;;8.43;;
17372;SDS011;8803;48.116;11.590;2023-05-14T11:39:53;10.43;;;7.90;;
17372;SDS011;8803;48.116;11.590;2023-05-14T11:42:09;22.00;;;13.43;;
17372;SDS011;8803;48.116;11.590;2023-05-14T11:44:14;10.97;;;9.87;;
17372;SDS011;8803;48.116;11.590;2023-05-14T11:46:28;7.87;;;7.07;;
17372;SDS011;8803;48.116;11.590;2023-05-14T11:48:32;7.30;;;6.60;;
17372;SDS011;8803;48.116;11.590;2023-05-14T11:50:45;6.37;;;5.77;;
17372;SDS011;8803;48.116;11.590;2023-05-14T11:52:54;7.47;;;6.73;;
17372;SDS011;8803;48.116;11.590;2023-05-14T11:55:09;6.63;;;5.93;;
17372;SDS011;8803;48.116;11.590;2023-05-14T11:57:15;7.03;;;6.13;;
17372;SDS011;8803;48.116;11.590;2023-05-14T11:59:30;7.60;;;6.80;;
17372;SDS011;8803;48.116;11.590;2023-05-14T12:01:35;7.37;;;6.67;;
17372;SDS011;8803;48.116;11.590;2023-05-14T12:03:48;7.33;;;6.50;;
17372;SDS011;8803;48.116;11.590;2023-05-14T12:05:56;6.87;;;6.17;;
17372;SDS011;8803;48.116;11.590;2023-05-14T12:08:00;6.17;;;5.57;;
17372;SDS011;8803;48.116;11.590;2023-05-14T12:12:16;6.83;;;6.10;;
17372;SDS011;8803;48.116;11.590;2023-05-14T12:14:22;5.60;;;5.10;;
17372;SDS011;8803;48.116;11.590;2023-05-14T12:16:39;6.80;;;6.20;;
17372;SDS011;8803;48.116;11.590;2023-05-14T12:18:43;5.03;;;4.57;;
17372;SDS011;8803;48.116;11.590;2023-05-14T12:20:47;5.60;;;5.03;;
17372;SDS011;8803;48.116;11.590;2023-05-14T12:23:01;5.47;;;4.97;;
17372;SDS011;8803;48.116;11.590;2023-05-14T12:25:09;6.10;;;5.50;;
17372;SDS011;8803;48.116;11.590;2023-05-14T12:27:21;5.40;;;4.90;;
17372;SDS011;8803;48.116;11.590;2023-05-14T12:29:26;5.63;;;5.13;;
17372;SDS011;8803;48.116;11.590;2023-05-14T12:31:43;7.67;;;5.80;;
17372;SDS011;8803;48.116;11.590;2023-05-14T12:33:48;5.23;;;4.33;;
17372;SDS011;8803;48.116;11.590;2023-05-14T12:36:00;5.20;;;4.70;;
17372;SDS011;8803;48.116;11.590;2023-05-14T12:38:04;3.93;;;3.63;;
17372;SDS011;8803;48.116;11.590;2023-05-14T12:40:08;6.10;;;5.50;;
17372;SDS011;8803;48.116;11.590;2023-05-14T12:42:14;8.03;;;5.37;;
17372;SDS011;8803;48.116;11.590;2023-05-14T12:44:18;6.00;;;5.23;;
17372;SDS011;8803;48.116;11.590;2023-05-14T12:46:32;4.87;;;4.40;;
17372;SDS011;8803;48.116;11.590;2023-05-14T12:48:36;5.60;;;5.10;;